createdAt,value
2019-03-15T00:02:06.217Z,2.30
2019-03-15T00:04:39.848Z,2.00
2019-03-15T00:07:09.154Z,2.40
2019-03-15T00:09:39.653Z,2.10
2019-03-15T00:12:10.145Z,2.58
2019-03-15T00:14:40.642Z,2.65
2019-03-15T00:17:11.102Z,2.00
2019-03-15T00:19:41.603Z,2.60
2019-03-15T00:22:12.076Z,2.62
2019-03-15T00:24:42.711Z,2.40
2019-03-15T00:27:13.172Z,2.42
2019-03-15T00:29:43.652Z,2.40
2019-03-15T00:32:16.532Z,2.65
2019-03-15T00:34:47.003Z,1.82
2019-03-15T00:37:17.485Z,2.45
2019-03-15T00:39:47.950Z,1.98
2019-03-15T00:42:18.456Z,2.72
2019-03-15T00:44:48.908Z,2.60
2019-03-15T00:47:19.381Z,2.00
2019-03-15T00:49:49.859Z,2.22
2019-03-15T00:52:20.343Z,2.95
2019-03-15T00:54:50.818Z,2.00
2019-03-15T00:57:21.313Z,2.20
2019-03-15T00:59:51.714Z,2.20
2019-03-15T01:02:22.168Z,2.23
2019-03-15T01:04:52.585Z,2.40
2019-03-15T01:07:23.007Z,2.05
2019-03-15T01:09:53.470Z,2.45
2019-03-15T01:12:24.173Z,1.85
2019-03-15T01:14:54.618Z,1.92
2019-03-15T01:17:25.091Z,2.27
2019-03-15T01:19:55.559Z,1.40
2019-03-15T01:22:26.029Z,1.65
2019-03-15T01:24:56.482Z,1.80
2019-03-15T01:27:26.964Z,1.30
2019-03-15T01:29:57.423Z,1.40
2019-03-15T01:32:27.919Z,1.15
2019-03-15T01:34:58.558Z,1.37
2019-03-15T01:37:29.006Z,1.35
2019-03-15T01:39:59.467Z,1.05
2019-03-15T01:42:29.971Z,1.60
2019-03-15T01:45:00.476Z,1.80
2019-03-15T01:47:30.956Z,1.75
2019-03-15T01:50:01.412Z,1.55
2019-03-15T01:52:31.909Z,1.75
2019-03-15T01:55:02.309Z,1.37
2019-03-15T01:57:32.740Z,1.30
2019-03-15T02:00:03.302Z,1.20
2019-03-15T02:02:33.644Z,1.30
2019-03-15T02:05:04.217Z,1.42
2019-03-15T02:07:34.813Z,1.40
2019-03-15T02:10:06.029Z,1.50
2019-03-15T02:12:36.452Z,1.50
2019-03-15T02:15:07.818Z,1.50
2019-03-15T02:17:38.409Z,1.50
2019-03-15T02:20:09.517Z,1.40
2019-03-15T02:22:39.971Z,1.50
2019-03-15T02:25:10.428Z,1.45
2019-03-15T02:27:40.905Z,1.40
2019-03-15T02:30:11.730Z,1.92
2019-03-15T02:32:42.174Z,1.90
2019-03-15T02:35:12.711Z,2.00
2019-03-15T02:37:43.144Z,2.20
2019-03-15T02:40:13.639Z,1.47
2019-03-15T02:42:44.130Z,1.87
2019-03-15T02:45:14.653Z,1.60
2019-03-15T02:47:46.292Z,1.87
2019-03-15T02:50:17.413Z,1.80
2019-03-15T02:52:48.279Z,2.27
2019-03-15T02:55:18.764Z,2.52
2019-03-15T02:57:49.265Z,1.95
2019-03-15T03:00:19.774Z,1.70
2019-03-15T03:02:50.258Z,2.00
2019-03-15T03:05:20.829Z,2.12
2019-03-15T03:07:51.386Z,1.80
2019-03-15T03:10:21.912Z,2.22
2019-03-15T03:12:52.452Z,2.33
2019-03-15T03:15:22.900Z,2.13
2019-03-15T03:17:53.302Z,2.10
2019-03-15T03:20:23.849Z,2.50
2019-03-15T03:22:54.356Z,2.30
2019-03-15T03:25:24.801Z,2.37
2019-03-15T03:27:55.319Z,2.15
2019-03-15T03:30:25.790Z,1.80
2019-03-15T03:32:56.248Z,2.30
2019-03-15T03:35:26.774Z,2.22
2019-03-15T03:37:57.288Z,2.30
2019-03-15T03:40:29.115Z,1.98
2019-03-15T03:43:00.058Z,1.80
2019-03-15T03:45:30.514Z,2.30
2019-03-15T03:48:00.907Z,2.20
2019-03-15T03:50:31.488Z,2.55
2019-03-15T03:53:01.869Z,1.70
2019-03-15T03:55:32.337Z,1.95
2019-03-15T03:58:02.812Z,1.60
2019-03-15T04:00:33.285Z,2.40
2019-03-15T04:03:03.752Z,2.00
2019-03-15T04:05:34.830Z,1.60
2019-03-15T04:08:05.402Z,2.25
2019-03-15T04:10:35.872Z,2.27
2019-03-15T04:13:06.366Z,1.60
2019-03-15T04:15:36.839Z,2.25
2019-03-15T04:18:07.313Z,2.08
2019-03-15T04:20:37.875Z,2.55
2019-03-15T04:23:08.375Z,2.00
2019-03-15T04:25:40.566Z,1.67
2019-03-15T04:28:11.472Z,1.52
2019-03-15T04:30:41.942Z,1.57
2019-03-15T04:33:12.428Z,1.90
2019-03-15T04:35:43.820Z,2.75
2019-03-15T04:38:14.335Z,2.47
2019-03-15T04:40:44.779Z,2.62
2019-03-15T04:43:15.373Z,2.98
2019-03-15T04:45:45.866Z,2.00
2019-03-15T04:48:16.354Z,3.00
2019-03-15T04:50:47.033Z,2.60
2019-03-15T04:53:17.594Z,3.30
2019-03-15T04:55:48.006Z,3.00
2019-03-15T04:58:18.500Z,2.92
2019-03-15T05:00:49.016Z,2.55
2019-03-15T05:03:19.557Z,3.75
2019-03-15T05:06:02.390Z,3.98
2019-03-15T05:08:22.376Z,4.10
2019-03-15T05:10:53.411Z,4.03
2019-03-15T05:13:23.963Z,3.60
2019-03-15T05:15:54.528Z,4.17
2019-03-15T05:18:25.073Z,3.62
2019-03-15T05:20:55.655Z,4.28
2019-03-15T05:23:26.193Z,4.72
2019-03-15T05:25:56.704Z,4.80
2019-03-15T05:28:27.259Z,4.25
2019-03-15T05:30:57.786Z,4.47
2019-03-15T05:33:28.350Z,3.70
2019-03-15T05:35:58.951Z,4.58
2019-03-15T05:38:29.496Z,5.12
2019-03-15T05:41:00.038Z,4.95
2019-03-15T05:43:30.691Z,4.17
2019-03-15T05:46:01.266Z,4.65
2019-03-15T05:48:31.786Z,4.00
2019-03-15T05:51:02.406Z,4.50
2019-03-15T05:53:32.922Z,3.52
2019-03-15T05:56:03.490Z,5.25
2019-03-15T05:58:34.450Z,4.37
2019-03-15T06:01:04.949Z,4.33
2019-03-15T06:03:47.778Z,3.90
2019-03-15T06:06:08.364Z,4.97
2019-03-15T06:08:38.955Z,5.55
2019-03-15T06:11:09.509Z,5.00
2019-03-15T06:13:40.176Z,5.67
2019-03-15T06:16:10.751Z,4.53
2019-03-15T06:18:41.253Z,4.40
2019-03-15T06:21:11.807Z,5.40
2019-03-15T06:23:42.358Z,4.78
2019-03-15T06:26:12.955Z,4.55
2019-03-15T06:28:43.527Z,5.53
2019-03-15T06:31:13.999Z,5.80
2019-03-15T06:33:44.491Z,5.67
2019-03-15T06:36:15.039Z,6.10
2019-03-15T06:38:45.619Z,6.30
2019-03-15T06:41:16.167Z,7.50
2019-03-15T06:43:46.719Z,5.80
2019-03-15T06:46:17.217Z,6.03
2019-03-15T06:48:47.711Z,6.83
2019-03-15T06:51:18.348Z,6.20
2019-03-15T06:53:48.916Z,6.33
2019-03-15T06:56:19.467Z,6.90
2019-03-15T06:58:49.972Z,6.62
2019-03-15T07:01:20.502Z,5.72
2019-03-15T07:03:51.034Z,6.45
2019-03-15T07:06:21.695Z,6.37
2019-03-15T07:08:52.291Z,6.60
2019-03-15T07:11:22.879Z,6.50
2019-03-15T07:13:53.407Z,5.70
2019-03-15T07:16:23.913Z,5.90
2019-03-15T07:18:54.505Z,5.80
2019-03-15T07:21:25.043Z,6.08
2019-03-15T07:23:57.887Z,5.50
2019-03-15T07:26:27.833Z,5.55
2019-03-15T07:28:58.483Z,4.85
2019-03-15T07:31:29.053Z,5.22
2019-03-15T07:33:59.597Z,5.22
2019-03-15T07:36:30.190Z,5.50
2019-03-15T07:39:00.720Z,4.55
2019-03-15T07:41:31.228Z,5.35
2019-03-15T07:44:01.867Z,5.20
2019-03-15T07:46:32.398Z,5.60
2019-03-15T07:49:02.959Z,4.87
2019-03-15T07:51:33.610Z,4.30
2019-03-15T07:54:04.122Z,6.05
2019-03-15T07:56:34.623Z,5.00
2019-03-15T07:59:05.162Z,4.65
2019-03-15T08:01:35.644Z,5.92
2019-03-15T08:04:16.332Z,4.62
2019-03-15T08:06:38.476Z,4.55
2019-03-15T08:09:09.637Z,5.42
2019-03-15T08:11:40.142Z,5.03
2019-03-15T08:14:10.690Z,4.70
2019-03-15T08:16:41.195Z,5.92
2019-03-15T08:19:11.730Z,5.20
2019-03-15T08:21:42.256Z,6.30
2019-03-15T08:24:12.751Z,6.00
2019-03-15T08:26:43.231Z,6.07
2019-03-15T08:29:13.759Z,5.67
2019-03-15T08:31:46.947Z,6.22
2019-03-15T08:34:16.510Z,6.90
2019-03-15T08:36:47.083Z,6.60
2019-03-15T08:39:17.624Z,5.70
2019-03-15T08:41:48.336Z,5.80
2019-03-15T08:44:18.880Z,5.70
2019-03-15T08:46:49.388Z,5.58
2019-03-15T08:49:19.880Z,6.23
2019-03-15T08:52:03.116Z,5.92
2019-03-15T08:54:22.739Z,5.72
2019-03-15T08:56:53.229Z,6.93
2019-03-15T08:59:23.795Z,6.00
2019-03-15T09:01:54.339Z,6.10
2019-03-15T09:04:24.889Z,5.65
2019-03-15T09:06:55.405Z,5.50
2019-03-15T09:09:25.922Z,6.17
2019-03-15T09:11:56.451Z,5.95
2019-03-15T09:14:26.878Z,6.55
2019-03-15T09:16:57.404Z,6.30
2019-03-15T09:19:27.924Z,6.40
2019-03-15T09:22:00.562Z,6.72
2019-03-15T09:24:30.961Z,6.33
2019-03-15T09:27:01.472Z,5.80
2019-03-15T09:29:32.003Z,4.72
2019-03-15T09:32:08.714Z,5.12
2019-03-15T09:34:34.786Z,5.60
2019-03-15T09:37:05.506Z,6.37
2019-03-15T09:39:36.055Z,5.30
2019-03-15T09:42:06.790Z,5.20
2019-03-15T09:44:37.727Z,5.50
2019-03-15T09:47:08.359Z,4.97
2019-03-15T09:49:38.870Z,5.17
2019-03-15T09:52:09.422Z,5.28
2019-03-15T09:54:39.969Z,5.03
2019-03-15T09:57:10.469Z,4.92
2019-03-15T09:59:41.020Z,4.70
2019-03-15T10:02:11.537Z,6.10
2019-03-15T10:04:42.073Z,5.12
2019-03-15T10:07:12.619Z,4.78
2019-03-15T10:09:46.177Z,4.70
2019-03-15T10:12:15.393Z,5.20
2019-03-15T10:14:45.950Z,5.28
2019-03-15T10:17:16.438Z,4.85
2019-03-15T10:19:47.000Z,5.70
2019-03-15T10:22:17.498Z,5.63
2019-03-15T10:24:50.010Z,5.30
2019-03-15T10:27:20.493Z,5.10
2019-03-15T10:29:50.912Z,5.92
2019-03-15T10:32:21.383Z,5.40
2019-03-15T10:34:51.920Z,4.60
2019-03-15T10:37:22.562Z,5.53
2019-03-15T10:39:53.134Z,5.00
2019-03-15T10:42:23.678Z,5.60
2019-03-15T10:44:54.218Z,5.28
2019-03-15T10:47:24.767Z,5.90
2019-03-15T10:49:55.254Z,5.30
2019-03-15T10:52:25.772Z,5.83
2019-03-15T10:54:56.261Z,5.80
2019-03-15T10:57:26.923Z,5.72
2019-03-15T10:59:57.464Z,5.90
2019-03-15T11:02:27.955Z,5.33
2019-03-15T11:04:58.512Z,5.12
2019-03-15T11:07:29.033Z,5.78
2019-03-15T11:09:59.563Z,5.55
2019-03-15T11:12:30.342Z,5.53
2019-03-15T11:15:00.862Z,6.75
2019-03-15T11:17:31.440Z,6.22
2019-03-15T11:20:02.007Z,6.08
2019-03-15T11:22:32.548Z,6.40
2019-03-15T11:25:03.097Z,6.90
2019-03-15T11:27:33.747Z,6.77
2019-03-15T11:30:04.265Z,5.90
2019-03-15T11:32:34.787Z,8.50
2019-03-15T11:35:05.698Z,7.20
2019-03-15T11:37:36.174Z,8.30
2019-03-15T11:40:07.699Z,7.28
2019-03-15T11:42:38.248Z,6.77
2019-03-15T11:45:09.696Z,6.90
2019-03-15T11:47:56.376Z,7.45
2019-03-15T11:50:12.620Z,7.60
2019-03-15T11:52:43.140Z,7.35
2019-03-15T11:55:13.623Z,7.50
2019-03-15T11:57:44.202Z,7.78
2019-03-15T12:00:14.712Z,7.78
2019-03-15T12:02:45.253Z,7.90
2019-03-15T12:05:16.441Z,8.35
2019-03-15T12:07:46.948Z,7.50
2019-03-15T12:10:18.038Z,7.60
2019-03-15T12:12:48.639Z,7.90
2019-03-15T12:15:19.145Z,6.70
2019-03-15T12:17:49.702Z,6.80
2019-03-15T12:20:20.299Z,6.25
2019-03-15T12:22:50.794Z,6.63
2019-03-15T12:25:21.293Z,6.47
2019-03-15T12:27:51.829Z,6.17
2019-03-15T12:30:22.382Z,5.42
2019-03-15T12:32:52.869Z,5.60
2019-03-15T12:35:23.456Z,5.17
2019-03-15T12:37:53.926Z,5.05
2019-03-15T12:40:24.405Z,4.40
2019-03-15T12:42:54.987Z,4.80
2019-03-15T12:45:25.494Z,5.05
2019-03-15T12:47:56.016Z,4.95
2019-03-15T12:50:26.622Z,5.65
2019-03-15T12:52:57.108Z,4.85
2019-03-15T12:55:27.615Z,5.20
2019-03-15T12:57:58.210Z,5.60
2019-03-15T13:00:28.696Z,6.00
2019-03-15T13:02:59.331Z,5.87
2019-03-15T13:05:29.944Z,5.90
2019-03-15T13:08:00.469Z,6.37
2019-03-15T13:10:31.015Z,5.78
2019-03-15T13:13:01.493Z,5.67
2019-03-15T13:15:32.293Z,5.10
2019-03-15T13:18:02.862Z,5.00
2019-03-15T13:20:33.940Z,5.05
2019-03-15T13:23:04.402Z,5.25
2019-03-15T13:25:34.882Z,4.53
2019-03-15T13:28:05.442Z,4.08
2019-03-15T13:30:35.906Z,3.40
2019-03-15T13:33:19.149Z,3.70
2019-03-15T13:35:38.742Z,2.95
2019-03-15T13:38:09.261Z,3.17
2019-03-15T13:40:39.755Z,2.50
2019-03-15T13:43:10.330Z,2.50
2019-03-15T13:45:40.920Z,2.65
2019-03-15T13:48:11.379Z,2.45
2019-03-15T13:50:41.890Z,2.77
2019-03-15T13:53:12.416Z,2.45
2019-03-15T13:55:43.022Z,2.90
2019-03-15T13:58:13.551Z,2.47
2019-03-15T14:00:44.047Z,2.30
2019-03-15T14:03:14.637Z,2.30
2019-03-15T14:05:45.254Z,2.75
2019-03-15T14:08:15.741Z,2.30
2019-03-15T14:10:49.637Z,2.50
2019-03-15T14:13:18.686Z,2.30
2019-03-15T14:15:49.278Z,2.50
2019-03-15T14:18:21.541Z,3.70
2019-03-15T14:20:52.023Z,2.80
2019-03-15T14:23:22.545Z,2.70
2019-03-15T14:25:53.049Z,2.55
2019-03-15T14:28:23.578Z,3.23
2019-03-15T14:30:54.092Z,3.05
2019-03-15T14:33:24.688Z,3.33
2019-03-15T14:35:55.281Z,2.40
2019-03-15T14:38:26.020Z,2.70
2019-03-15T14:40:56.493Z,2.90
2019-03-15T14:43:27.055Z,3.08
2019-03-15T14:45:57.529Z,2.80
2019-03-15T14:48:28.077Z,3.10
2019-03-15T14:50:58.727Z,2.40
2019-03-15T14:53:29.278Z,2.65
2019-03-15T14:55:59.784Z,2.90
2019-03-15T14:58:30.315Z,2.37
2019-03-15T15:01:00.951Z,3.15
2019-03-15T15:03:34.621Z,3.20
2019-03-15T15:06:05.219Z,3.02
2019-03-15T15:08:35.745Z,2.77
2019-03-15T15:11:06.393Z,2.90
2019-03-15T15:13:36.927Z,3.35
2019-03-15T15:16:07.511Z,3.15
2019-03-15T15:18:38.304Z,2.95
2019-03-15T15:21:08.846Z,3.47
2019-03-15T15:23:39.492Z,3.50
2019-03-15T15:26:10.075Z,3.35
2019-03-15T15:28:40.643Z,2.50
2019-03-15T15:31:11.785Z,3.30
2019-03-15T15:33:42.378Z,3.40
2019-03-15T15:36:12.988Z,3.10
2019-03-15T15:38:43.552Z,2.80
2019-03-15T15:41:14.091Z,3.40
2019-03-15T15:43:44.661Z,3.40
2019-03-15T15:46:16.100Z,2.95
2019-03-15T15:48:46.686Z,3.35
2019-03-15T15:51:17.364Z,4.10
2019-03-15T15:53:48.167Z,3.70
2019-03-15T15:56:18.731Z,3.60
2019-03-15T15:58:49.462Z,3.55
2019-03-15T16:01:20.072Z,2.85
2019-03-15T16:03:51.151Z,3.60
2019-03-15T16:06:21.814Z,3.15
2019-03-15T16:08:52.791Z,3.42
2019-03-15T16:11:23.650Z,2.62
2019-03-15T16:13:54.672Z,3.60
2019-03-15T16:16:25.245Z,3.20
2019-03-15T16:18:56.150Z,3.10
2019-03-15T16:21:26.765Z,2.83
2019-03-15T16:23:57.539Z,2.80
2019-03-15T16:26:28.068Z,3.25
2019-03-15T16:28:58.618Z,2.70
2019-03-15T16:31:29.122Z,2.60
2019-03-15T16:33:59.968Z,3.17
2019-03-15T16:36:30.714Z,2.70
2019-03-15T16:39:01.566Z,3.03
2019-03-15T16:41:32.167Z,3.27
2019-03-15T16:44:02.861Z,3.15
2019-03-15T16:46:33.591Z,3.45
2019-03-15T16:49:04.917Z,3.08
2019-03-15T16:51:36.062Z,4.12
2019-03-15T16:54:06.634Z,2.58
2019-03-15T16:56:37.213Z,3.40
2019-03-15T16:59:07.759Z,3.20
2019-03-15T17:01:38.360Z,3.50
2019-03-15T17:04:08.974Z,3.50
2019-03-15T17:06:39.534Z,3.30
2019-03-15T17:09:10.177Z,4.00
2019-03-15T17:11:40.701Z,4.08
2019-03-15T17:14:24.729Z,3.50
2019-03-15T17:16:43.578Z,3.42
2019-03-15T17:19:14.080Z,3.75
2019-03-15T17:21:47.437Z,4.15
2019-03-15T17:24:18.057Z,3.40
2019-03-15T17:26:51.328Z,3.15
2019-03-15T17:29:23.967Z,4.12
2019-03-15T17:31:54.592Z,4.00
2019-03-15T17:34:25.148Z,3.35
2019-03-15T17:37:06.170Z,3.42
2019-03-15T17:39:28.413Z,3.60
2019-03-15T17:41:59.207Z,3.55
2019-03-15T17:44:29.905Z,2.85
2019-03-15T17:47:00.611Z,3.90
2019-03-15T17:49:31.229Z,3.90
2019-03-15T17:52:01.824Z,3.98
2019-03-15T17:54:32.440Z,4.15
2019-03-15T17:57:03.018Z,3.37
2019-03-15T17:59:33.595Z,3.80
2019-03-15T18:02:04.357Z,3.58
2019-03-15T18:04:35.098Z,4.33
2019-03-15T18:07:05.765Z,4.00
2019-03-15T18:09:36.403Z,3.80
2019-03-15T18:12:07.021Z,4.62
2019-03-15T18:14:37.704Z,3.83
2019-03-15T18:17:08.320Z,4.20
2019-03-15T18:19:39.122Z,4.20
2019-03-15T18:22:09.902Z,4.33
2019-03-15T18:24:43.065Z,4.40
2019-03-15T18:27:12.688Z,4.12
2019-03-15T18:29:43.490Z,3.70
2019-03-15T18:32:14.303Z,4.58
2019-03-15T18:34:44.884Z,4.12
2019-03-15T18:37:15.481Z,4.35
2019-03-15T18:39:46.041Z,4.20
2019-03-15T18:42:16.631Z,4.03
2019-03-15T18:44:47.306Z,3.50
2019-03-15T18:47:17.823Z,3.87
2019-03-15T18:49:48.432Z,4.10
2019-03-15T18:52:19.002Z,4.15
2019-03-15T18:54:49.509Z,4.23
2019-03-15T18:57:20.106Z,4.35
2019-03-15T18:59:50.740Z,4.17
2019-03-15T19:02:21.551Z,4.12
2019-03-15T19:04:52.155Z,4.20
2019-03-15T19:07:22.691Z,4.10
2019-03-15T19:09:53.246Z,3.72
2019-03-15T19:12:23.796Z,4.00
2019-03-15T19:14:54.372Z,4.20
2019-03-15T19:17:24.960Z,3.10
2019-03-15T19:19:55.537Z,4.73
2019-03-15T19:22:26.159Z,5.08
2019-03-15T19:24:56.678Z,4.53
2019-03-15T19:27:27.758Z,4.60
2019-03-15T19:29:58.393Z,4.40
2019-03-15T19:32:28.999Z,4.70
2019-03-15T19:34:59.695Z,4.80
2019-03-15T19:37:30.596Z,4.95
2019-03-15T19:40:01.182Z,4.70
2019-03-15T19:42:31.833Z,3.92
2019-03-15T19:45:02.466Z,4.57
2019-03-15T19:47:33.007Z,4.20
2019-03-15T19:50:03.647Z,4.13
2019-03-15T19:52:34.424Z,4.17
2019-03-15T19:55:05.757Z,3.60
2019-03-15T19:57:36.510Z,6.10
2019-03-15T20:00:08.886Z,5.53
2019-03-15T20:02:39.772Z,4.60
2019-03-15T20:05:17.509Z,4.90
2019-03-15T20:07:48.302Z,4.67
2019-03-15T20:10:18.957Z,4.20
2019-03-15T20:12:49.618Z,5.63
2019-03-15T20:15:20.418Z,6.35
2019-03-15T20:17:51.148Z,4.22
2019-03-15T20:20:22.021Z,4.00
2019-03-15T20:22:52.816Z,3.92
2019-03-15T20:25:23.438Z,4.37
2019-03-15T20:27:54.091Z,4.70
2019-03-15T20:30:26.807Z,4.53
2019-03-15T20:32:57.060Z,4.90
2019-03-15T20:35:27.872Z,4.10
2019-03-15T20:37:58.844Z,4.90
2019-03-15T20:40:29.607Z,5.10
2019-03-15T20:43:00.332Z,4.10
2019-03-15T20:45:30.984Z,5.30
2019-03-15T20:48:01.431Z,4.60
2019-03-15T20:50:45.863Z,4.40
2019-03-15T20:53:09.689Z,4.60
2019-03-15T20:55:39.847Z,4.33
2019-03-15T20:58:10.879Z,4.05
2019-03-15T21:00:41.752Z,4.50
2019-03-15T21:03:12.517Z,4.67
2019-03-15T21:05:43.438Z,5.08
2019-03-15T21:08:14.196Z,4.37
2019-03-15T21:10:47.502Z,4.60
2019-03-15T21:13:18.215Z,4.95
2019-03-15T21:15:49.256Z,4.73
2019-03-15T21:18:20.683Z,5.00
2019-03-15T21:20:51.570Z,4.42
2019-03-15T21:23:22.285Z,4.50
2019-03-15T21:25:53.281Z,4.33
2019-03-15T21:28:25.101Z,4.22
2019-03-15T21:30:55.815Z,4.33
2019-03-15T21:33:26.502Z,4.40
2019-03-15T21:35:58.249Z,4.25
2019-03-15T21:38:28.760Z,4.08
2019-03-15T21:40:59.345Z,4.10
2019-03-15T21:43:29.864Z,4.70
2019-03-15T21:46:00.444Z,4.25
2019-03-15T21:48:30.996Z,4.15
2019-03-15T21:51:01.906Z,4.37
2019-03-15T21:53:33.209Z,4.42
2019-03-15T21:56:03.783Z,4.37
2019-03-15T21:58:34.336Z,4.27
2019-03-15T22:01:04.813Z,4.10
2019-03-15T22:03:35.377Z,4.95
2019-03-15T22:06:05.846Z,4.75
2019-03-15T22:08:36.292Z,4.20
2019-03-15T22:11:20.185Z,4.47
2019-03-15T22:13:39.084Z,4.35
2019-03-15T22:16:09.511Z,4.87
2019-03-15T22:18:40.173Z,4.72
2019-03-15T22:21:10.696Z,5.30
2019-03-15T22:23:41.183Z,4.97
2019-03-15T22:26:11.816Z,4.65
2019-03-15T22:28:42.270Z,4.20
2019-03-15T22:31:16.980Z,3.70
2019-03-15T22:33:45.039Z,4.30
2019-03-15T22:36:15.543Z,4.53
2019-03-15T22:38:46.201Z,4.12
2019-03-15T22:41:16.689Z,4.25
2019-03-15T22:43:47.231Z,4.35
2019-03-15T22:46:17.708Z,4.10
2019-03-15T22:48:48.220Z,4.90
2019-03-15T22:51:18.702Z,4.50
2019-03-15T22:53:49.540Z,4.53
2019-03-15T22:56:20.297Z,3.70
2019-03-15T22:58:50.774Z,4.35
2019-03-15T23:01:30.022Z,3.67
2019-03-15T23:03:53.486Z,4.80
2019-03-15T23:06:23.985Z,3.92
2019-03-15T23:08:54.622Z,4.10
2019-03-15T23:11:25.133Z,4.08
2019-03-15T23:13:55.631Z,3.47
2019-03-15T23:16:26.160Z,3.92
2019-03-15T23:18:56.646Z,3.70
2019-03-15T23:21:27.151Z,4.00
2019-03-15T23:23:57.615Z,4.90
2019-03-15T23:26:28.162Z,4.85
2019-03-15T23:28:58.623Z,4.12
2019-03-15T23:31:42.510Z,5.28
2019-03-15T23:34:01.363Z,5.10
2019-03-15T23:36:31.936Z,4.78
2019-03-15T23:39:02.389Z,6.75
2019-03-15T23:41:32.949Z,5.78
2019-03-15T23:44:03.454Z,5.17
2019-03-15T23:46:33.972Z,5.37
2019-03-15T23:49:04.505Z,5.47
2019-03-15T23:51:34.946Z,5.27
2019-03-15T23:54:05.404Z,5.28
2019-03-15T23:56:36.882Z,4.75
2019-03-15T23:59:07.397Z,4.00
